sensor_id;sensor_type;location;lat;lon;timestamp;pressure;altitude;pressure_sealevel;temperature;humidity
10079;BME280;5078;42.544;22.966;2022-12-10T00:01:59;93288.47;;;12.30;100.00
10079;BME280;5078;42.544;22.966;2022-12-10T00:04:27;93279.69;;;12.37;100.00
10079;BME280;5078;42.544;22.966;2022-12-10T00:06:54;93284.81;;;12.38;100.00
10079;BME280;5078;42.544;22.966;2022-12-10T00:09:20;93281.50;;;12.29;100.00
10079;BME280;5078;42.544;22.966;2022-12-10T00:11:47;93278.63;;;12.24;100.00
10079;BME280;5078;42.544;22.966;2022-12-10T00:14:14;93288.66;;;12.29;100.00
10079;BME280;5078;42.544;22.966;2022-12-10T00:16:41;93292.56;;;12.26;100.00
10079;BME280;5078;42.544;22.966;2022-12-10T00:19:08;93281.47;;;12.16;100.00
10079;BME280;5078;42.544;22.966;2022-12-10T00:21:37;93281.69;;;12.21;100.00
10079;BME280;5078;42.544;22.966;2022-12-10T00:24:04;93278.59;;;12.18;100.00
10079;BME280;5078;42.544;22.966;2022-12-10T00:26:34;93285.97;;;12.22;100.00
10079;BME280;5078;42.544;22.966;2022-12-10T00:29:03;93287.63;;;12.23;100.00
10079;BME280;5078;42.544;22.966;2022-12-10T00:31:32;93290.31;;;12.23;100.00
10079;BME280;5078;42.544;22.966;2022-12-10T00:34:00;93296.41;;;12.17;100.00
10079;BME280;5078;42.544;22.966;2022-12-10T00:36:29;93299.47;;;12.14;100.00
10079;BME280;5078;42.544;22.966;2022-12-10T00:38:57;93295.75;;;12.15;100.00
10079;BME280;5078;42.544;22.966;2022-12-10T00:41:24;93303.75;;;12.15;100.00
10079;BME280;5078;42.544;22.966;2022-12-10T00:43:51;93302.97;;;12.21;100.00
10079;BME280;5078;42.544;22.966;2022-12-10T00:46:18;93302.56;;;12.24;100.00
10079;BME280;5078;42.544;22.966;2022-12-10T00:48:45;93303.19;;;12.26;100.00
10079;BME280;5078;42.544;22.966;2022-12-10T00:51:14;93301.72;;;12.11;100.00
10079;BME280;5078;42.544;22.966;2022-12-10T00:53:42;93297.84;;;12.13;100.00
10079;BME280;5078;42.544;22.966;2022-12-10T00:56:12;93308.03;;;12.09;100.00
10079;BME280;5078;42.544;22.966;2022-12-10T00:58:39;93310.91;;;12.15;100.00
10079;BME280;5078;42.544;22.966;2022-12-10T01:01:10;93306.75;;;11.99;100.00
10079;BME280;5078;42.544;22.966;2022-12-10T01:03:37;93291.44;;;12.07;100.00
10079;BME280;5078;42.544;22.966;2022-12-10T01:06:12;93300.69;;;12.12;100.00
10079;BME280;5078;42.544;22.966;2022-12-10T01:08:39;93290.03;;;12.12;100.00
10079;BME280;5078;42.544;22.966;2022-12-10T01:11:06;93295.59;;;12.17;100.00
10079;BME280;5078;42.544;22.966;2022-12-10T01:13:35;93286.56;;;12.18;100.00
10079;BME280;5078;42.544;22.966;2022-12-10T01:16:02;93282.53;;;12.28;100.00
10079;BME280;5078;42.544;22.966;2022-12-10T01:18:29;93279.03;;;12.28;100.00
10079;BME280;5078;42.544;22.966;2022-12-10T01:21:01;93279.66;;;12.30;100.00
10079;BME280;5078;42.544;22.966;2022-12-10T01:23:28;93277.84;;;12.30;100.00
10079;BME280;5078;42.544;22.966;2022-12-10T01:25:59;93281.50;;;12.29;100.00
10079;BME280;5078;42.544;22.966;2022-12-10T01:28:28;93273.75;;;12.35;100.00
10079;BME280;5078;42.544;22.966;2022-12-10T01:30:59;93286.44;;;12.39;100.00
10079;BME280;5078;42.544;22.966;2022-12-10T01:33:26;93287.63;;;12.30;100.00
10079;BME280;5078;42.544;22.966;2022-12-10T01:35:53;93279.06;;;12.35;100.00
10079;BME280;5078;42.544;22.966;2022-12-10T01:38:20;93281.94;;;12.40;100.00
10079;BME280;5078;42.544;22.966;2022-12-10T01:40:46;93282.38;;;12.43;100.00
10079;BME280;5078;42.544;22.966;2022-12-10T01:43:14;93269.28;;;12.42;100.00
10079;BME280;5078;42.544;22.966;2022-12-10T01:45:41;93261.09;;;12.37;100.00
10079;BME280;5078;42.544;22.966;2022-12-10T01:48:09;93268.66;;;12.40;100.00
10079;BME280;5078;42.544;22.966;2022-12-10T01:50:36;93267.84;;;12.46;100.00
10079;BME280;5078;42.544;22.966;2022-12-10T01:53:03;93266.44;;;12.43;100.00
10079;BME280;5078;42.544;22.966;2022-12-10T01:55:40;93253.91;;;12.37;100.00
10079;BME280;5078;42.544;22.966;2022-12-10T01:58:08;93237.34;;;12.28;100.00
10079;BME280;5078;42.544;22.966;2022-12-10T02:00:51;93246.97;;;12.36;100.00
10079;BME280;5078;42.544;22.966;2022-12-10T02:03:29;93249.22;;;12.39;100.00
10079;BME280;5078;42.544;22.966;2022-12-10T02:06:05;93254.16;;;12.36;100.00
10079;BME280;5078;42.544;22.966;2022-12-10T02:08:39;93261.09;;;12.37;100.00
10079;BME280;5078;42.544;22.966;2022-12-10T02:11:14;93253.50;;;12.40;100.00
10079;BME280;5078;42.544;22.966;2022-12-10T02:13:46;93255.16;;;12.48;100.00
10079;BME280;5078;42.544;22.966;2022-12-10T02:16:21;93251.47;;;12.36;100.00
10079;BME280;5078;42.544;22.966;2022-12-10T02:18:56;93253.94;;;12.30;100.00
10079;BME280;5078;42.544;22.966;2022-12-10T02:21:28;93241.66;;;12.36;100.00
10079;BME280;5078;42.544;22.966;2022-12-10T02:23:59;93237.97;;;12.30;100.00
10079;BME280;5078;42.544;22.966;2022-12-10T02:26:30;93235.31;;;12.30;100.00
10079;BME280;5078;42.544;22.966;2022-12-10T02:31:37;93214.25;;;12.29;100.00
10079;BME280;5078;42.544;22.966;2022-12-10T02:34:07;93222.41;;;12.27;100.00
10079;BME280;5078;42.544;22.966;2022-12-10T02:36:38;93220.81;;;12.33;100.00
10079;BME280;5078;42.544;22.966;2022-12-10T02:39:08;93221.41;;;12.42;100.00
10079;BME280;5078;42.544;22.966;2022-12-10T02:41:39;93227.13;;;12.19;100.00
10079;BME280;5078;42.544;22.966;2022-12-10T02:44:09;93232.03;;;12.28;100.00
10079;BME280;5078;42.544;22.966;2022-12-10T02:46:40;93217.50;;;12.24;100.00
10079;BME280;5078;42.544;22.966;2022-12-10T02:49:09;93212.81;;;12.26;100.00
10079;BME280;5078;42.544;22.966;2022-12-10T02:51:38;93223.47;;;12.33;100.00
10079;BME280;5078;42.544;22.966;2022-12-10T02:54:37;93218.34;;;12.32;100.00
10079;BME280;5078;42.544;22.966;2022-12-10T02:57:10;93225.50;;;12.31;100.00
10079;BME280;5078;42.544;22.966;2022-12-10T02:59:49;93224.00;;;12.02;100.00
10079;BME280;5078;42.544;22.966;2022-12-10T03:02:23;93225.00;;;11.94;100.00
10079;BME280;5078;42.544;22.966;2022-12-10T03:04:57;93219.72;;;12.01;100.00
10079;BME280;5078;42.544;22.966;2022-12-10T03:07:34;93228.09;;;12.04;100.00
10079;BME280;5078;42.544;22.966;2022-12-10T03:10:06;93217.66;;;12.03;100.00
10079;BME280;5078;42.544;22.966;2022-12-10T03:12:38;93211.53;;;11.96;100.00
10079;BME280;5078;42.544;22.966;2022-12-10T03:15:08;93214.53;;;11.86;100.00
10079;BME280;5078;42.544;22.966;2022-12-10T03:17:38;93208.22;;;11.87;100.00
10079;BME280;5078;42.544;22.966;2022-12-10T03:20:07;93209.19;;;11.79;100.00
10079;BME280;5078;42.544;22.966;2022-12-10T03:22:37;93194.06;;;11.73;100.00
10079;BME280;5078;42.544;22.966;2022-12-10T03:25:05;93220.00;;;11.78;100.00
10079;BME280;5078;42.544;22.966;2022-12-10T03:27:33;93203.63;;;11.68;100.00
10079;BME280;5078;42.544;22.966;2022-12-10T03:30:00;93215.91;;;11.75;100.00
10079;BME280;5078;42.544;22.966;2022-12-10T03:32:28;93202.84;;;11.74;100.00
10079;BME280;5078;42.544;22.966;2022-12-10T03:34:58;93208.78;;;11.76;100.00
10079;BME280;5078;42.544;22.966;2022-12-10T03:37:27;93200.13;;;11.60;100.00
10079;BME280;5078;42.544;22.966;2022-12-10T03:39:55;93195.03;;;11.59;100.00
10079;BME280;5078;42.544;22.966;2022-12-10T03:42:23;93188.69;;;11.53;100.00
10079;BME280;5078;42.544;22.966;2022-12-10T03:44:50;93198.66;;;11.51;100.00
10079;BME280;5078;42.544;22.966;2022-12-10T03:47:18;93191.97;;;11.62;100.00
10079;BME280;5078;42.544;22.966;2022-12-10T03:49:45;93187.31;;;11.71;100.00
10079;BME280;5078;42.544;22.966;2022-12-10T03:52:13;93188.13;;;11.71;100.00
10079;BME280;5078;42.544;22.966;2022-12-10T03:54:41;93176.28;;;11.74;100.00
10079;BME280;5078;42.544;22.966;2022-12-10T03:57:08;93196.09;;;11.78;100.00
10079;BME280;5078;42.544;22.966;2022-12-10T03:59:35;93195.28;;;11.77;100.00
10079;BME280;5078;42.544;22.966;2022-12-10T04:02:02;93189.97;;;11.71;100.00
10079;BME280;5078;42.544;22.966;2022-12-10T04:04:29;93196.94;;;11.78;100.00
10079;BME280;5078;42.544;22.966;2022-12-10T04:06:56;93195.50;;;11.76;100.00
10079;BME280;5078;42.544;22.966;2022-12-10T04:09:24;93202.03;;;11.80;100.00
10079;BME280;5078;42.544;22.966;2022-12-10T04:11:55;93194.47;;;11.77;100.00
10079;BME280;5078;42.544;22.966;2022-12-10T04:14:22;93203.47;;;11.82;100.00
10079;BME280;5078;42.544;22.966;2022-12-10T04:17:07;93203.25;;;11.77;100.00
10079;BME280;5078;42.544;22.966;2022-12-10T04:19:34;93209.00;;;11.81;100.00
10079;BME280;5078;42.544;22.966;2022-12-10T04:22:00;93213.88;;;11.77;100.00
10079;BME280;5078;42.544;22.966;2022-12-10T04:24:45;93221.84;;;11.71;100.00
10079;BME280;5078;42.544;22.966;2022-12-10T04:27:27;93212.16;;;11.56;100.00
10079;BME280;5078;42.544;22.966;2022-12-10T04:29:56;93223.41;;;11.65;100.00
10079;BME280;5078;42.544;22.966;2022-12-10T04:32:24;93189.72;;;11.65;100.00
10079;BME280;5078;42.544;22.966;2022-12-10T04:34:51;93210.97;;;11.65;100.00
10079;BME280;5078;42.544;22.966;2022-12-10T04:37:19;93218.28;;;11.57;100.00
10079;BME280;5078;42.544;22.966;2022-12-10T04:39:49;93225.66;;;11.61;100.00
10079;BME280;5078;42.544;22.966;2022-12-10T04:42:16;93231.19;;;11.66;100.00
10079;BME280;5078;42.544;22.966;2022-12-10T04:44:43;93230.75;;;11.63;100.00
10079;BME280;5078;42.544;22.966;2022-12-10T04:47:10;93228.09;;;11.63;100.00
10079;BME280;5078;42.544;22.966;2022-12-10T04:49:38;93226.25;;;11.57;100.00
10079;BME280;5078;42.544;22.966;2022-12-10T04:52:05;93218.09;;;11.65;100.00
10079;BME280;5078;42.544;22.966;2022-12-10T04:54:33;93200.38;;;11.72;100.00
10079;BME280;5078;42.544;22.966;2022-12-10T04:57:01;93202.81;;;11.67;100.00
10079;BME280;5078;42.544;22.966;2022-12-10T04:59:28;93197.50;;;11.67;100.00
10079;BME280;5078;42.544;22.966;2022-12-10T05:01:55;93207.72;;;11.70;100.00
10079;BME280;5078;42.544;22.966;2022-12-10T05:04:21;93197.09;;;11.70;100.00
10079;BME280;5078;42.544;22.966;2022-12-10T05:06:48;93206.91;;;11.70;100.00
10079;BME280;5078;42.544;22.966;2022-12-10T05:09:16;93199.16;;;11.75;100.00
10079;BME280;5078;42.544;22.966;2022-12-10T05:11:43;93197.97;;;11.84;100.00
10079;BME280;5078;42.544;22.966;2022-12-10T05:14:12;93200.41;;;11.85;100.00
10079;BME280;5078;42.544;22.966;2022-12-10T05:16:39;93209.66;;;11.90;100.00
10079;BME280;5078;42.544;22.966;2022-12-10T05:19:07;93209.19;;;11.79;100.00
10079;BME280;5078;42.544;22.966;2022-12-10T05:21:34;93211.25;;;11.84;100.00
10079;BME280;5078;42.544;22.966;2022-12-10T05:24:18;93209.19;;;11.79;100.00
10079;BME280;5078;42.544;22.966;2022-12-10T05:26:45;93210.69;;;11.89;100.00
10079;BME280;5078;42.544;22.966;2022-12-10T05:29:17;93212.72;;;11.86;100.00
10079;BME280;5078;42.544;22.966;2022-12-10T05:31:45;93213.56;;;11.94;100.00
10079;BME280;5078;42.544;22.966;2022-12-10T05:34:12;93205.41;;;12.02;100.00
10079;BME280;5078;42.544;22.966;2022-12-10T05:36:39;93198.66;;;11.99;100.00
10079;BME280;5078;42.544;22.966;2022-12-10T05:39:06;93203.78;;;12.07;100.00
10079;BME280;5078;42.544;22.966;2022-12-10T05:41:35;93208.03;;;11.95;100.00
10079;BME280;5078;42.544;22.966;2022-12-10T05:44:02;93209.66;;;11.90;100.00
10079;BME280;5078;42.544;22.966;2022-12-10T05:46:32;93214.34;;;11.87;100.00
10079;BME280;5078;42.544;22.966;2022-12-10T05:48:59;93207.44;;;12.00;100.00
10079;BME280;5078;42.544;22.966;2022-12-10T05:51:28;93212.75;;;11.93;100.00
10079;BME280;5078;42.544;22.966;2022-12-10T05:53:56;93219.19;;;11.77;100.00
10079;BME280;5078;42.544;22.966;2022-12-10T05:56:24;93215.53;;;11.85;100.00
10079;BME280;5078;42.544;22.966;2022-12-10T05:58:54;93222.88;;;11.83;100.00
10079;BME280;5078;42.544;22.966;2022-12-10T06:01:24;93211.03;;;11.85;100.00
10079;BME280;5078;42.544;22.966;2022-12-10T06:03:53;93212.75;;;12.00;100.00
10079;BME280;5078;42.544;22.966;2022-12-10T06:06:22;93195.94;;;11.86;100.00
10079;BME280;5078;42.544;22.966;2022-12-10T06:08:49;93211.31;;;11.97;100.00
10079;BME280;5078;42.544;22.966;2022-12-10T06:11:16;93198.84;;;11.98;100.00
10079;BME280;5078;42.544;22.966;2022-12-10T06:13:43;93198.63;;;11.93;100.00
10079;BME280;5078;42.544;22.966;2022-12-10T06:16:11;93195.19;;;12.05;100.00
10079;BME280;5078;42.544;22.966;2022-12-10T06:18:39;93196.22;;;12.11;100.00
10079;BME280;5078;42.544;22.966;2022-12-10T06:21:10;93197.66;;;12.20;100.00
10079;BME280;5078;42.544;22.966;2022-12-10T06:23:39;93199.72;;;12.18;100.00
10079;BME280;5078;42.544;22.966;2022-12-10T06:26:06;93196.88;;;12.26;100.00
10079;BME280;5078;42.544;22.966;2022-12-10T06:28:33;93204.25;;;12.31;100.00
10079;BME280;5078;42.544;22.966;2022-12-10T06:31:00;93195.84;;;12.27;100.00
10079;BME280;5078;42.544;22.966;2022-12-10T06:33:27;93191.94;;;12.30;100.00
10079;BME280;5078;42.544;22.966;2022-12-10T06:35:53;93205.84;;;12.25;100.00
10079;BME280;5078;42.544;22.966;2022-12-10T06:38:22;93216.47;;;12.25;100.00
10079;BME280;5078;42.544;22.966;2022-12-10T06:40:49;93214.41;;;12.14;100.00
10079;BME280;5078;42.544;22.966;2022-12-10T06:43:15;93219.38;;;12.30;100.00
10079;BME280;5078;42.544;22.966;2022-12-10T06:45:42;93225.69;;;12.29;100.00
10079;BME280;5078;42.544;22.966;2022-12-10T06:48:09;93231.63;;;12.32;100.00
10079;BME280;5078;42.544;22.966;2022-12-10T06:50:36;93238.41;;;12.41;100.00
10079;BME280;5078;42.544;22.966;2022-12-10T06:53:03;93235.72;;;12.47;100.00
10079;BME280;5078;42.544;22.966;2022-12-10T06:55:31;93232.06;;;12.55;100.00
10079;BME280;5078;42.544;22.966;2022-12-10T06:57:58;93231.66;;;12.51;100.00
10079;BME280;5078;42.544;22.966;2022-12-10T07:00:25;93237.59;;;12.60;100.00
10079;BME280;5078;42.544;22.966;2022-12-10T07:02:51;93217.75;;;12.63;100.00
10079;BME280;5078;42.544;22.966;2022-12-10T07:05:18;93213.06;;;12.58;100.00
10079;BME280;5078;42.544;22.966;2022-12-10T07:07:45;93219.38;;;12.57;100.00
10079;BME280;5078;42.544;22.966;2022-12-10T07:10:12;93220.84;;;12.53;100.00
10079;BME280;5078;42.544;22.966;2022-12-10T07:12:40;93214.69;;;12.46;100.00
10079;BME280;5078;42.544;22.966;2022-12-10T07:15:07;93225.75;;;12.56;100.00
10079;BME280;5078;42.544;22.966;2022-12-10T07:17:34;93222.06;;;12.50;100.00
10079;BME280;5078;42.544;22.966;2022-12-10T07:20:01;93223.50;;;12.53;100.00
10079;BME280;5078;42.544;22.966;2022-12-10T07:22:28;93212.22;;;12.51;100.00
10079;BME280;5078;42.544;22.966;2022-12-10T07:24:54;93216.53;;;12.59;100.00
10079;BME280;5078;42.544;22.966;2022-12-10T07:27:21;93225.91;;;12.48;100.00
10079;BME280;5078;42.544;22.966;2022-12-10T07:29:49;93218.56;;;12.57;100.00
10079;BME280;5078;42.544;22.966;2022-12-10T07:32:16;93217.34;;;12.59;100.00
10079;BME280;5078;42.544;22.966;2022-12-10T07:34:43;93225.53;;;12.64;100.00
10079;BME280;5078;42.544;22.966;2022-12-10T07:37:10;93226.53;;;12.50;100.00
10079;BME280;5078;42.544;22.966;2022-12-10T07:39:36;93223.03;;;12.43;100.00
10079;BME280;5078;42.544;22.966;2022-12-10T07:42:03;93221.41;;;12.55;100.00
10079;BME280;5078;42.544;22.966;2022-12-10T07:44:30;93221.41;;;12.55;100.00
10079;BME280;5078;42.544;22.966;2022-12-10T07:46:58;93224.28;;;12.60;100.00
10079;BME280;5078;42.544;22.966;2022-12-10T07:49:25;93213.84;;;12.52;100.00
10079;BME280;5078;42.544;22.966;2022-12-10T07:51:51;93213.44;;;12.55;100.00
10079;BME280;5078;42.544;22.966;2022-12-10T07:54:19;93201.38;;;12.59;100.00
10079;BME280;5078;42.544;22.966;2022-12-10T07:56:45;93213.84;;;12.65;100.00
10079;BME280;5078;42.544;22.966;2022-12-10T07:59:12;93211.63;;;12.62;100.00
10079;BME280;5078;42.544;22.966;2022-12-10T08:01:40;93197.50;;;12.68;100.00
10079;BME280;5078;42.544;22.966;2022-12-10T08:04:08;93199.78;;;12.58;100.00
10079;BME280;5078;42.544;22.966;2022-12-10T08:06:35;93203.03;;;12.73;100.00
10079;BME280;5078;42.544;22.966;2022-12-10T08:09:02;93205.66;;;12.80;100.00
10079;BME280;5078;42.544;22.966;2022-12-10T08:11:29;93207.91;;;12.90;100.00
10079;BME280;5078;42.544;22.966;2022-12-10T08:13:56;93197.69;;;12.87;100.00
10079;BME280;5078;42.544;22.966;2022-12-10T08:16:26;93191.16;;;12.96;100.00
10079;BME280;5078;42.544;22.966;2022-12-10T08:18:54;93184.38;;;13.00;100.00
10079;BME280;5078;42.544;22.966;2022-12-10T08:21:24;93172.69;;;13.08;100.00
10079;BME280;5078;42.544;22.966;2022-12-10T08:23:52;93177.59;;;13.17;100.00
10079;BME280;5078;42.544;22.966;2022-12-10T08:26:20;93173.72;;;13.27;100.00
10079;BME280;5078;42.544;22.966;2022-12-10T08:28:48;93177.56;;;13.44;100.00
10079;BME280;5078;42.544;22.966;2022-12-10T08:31:17;93185.53;;;13.51;100.00
10079;BME280;5078;42.544;22.966;2022-12-10T08:33:44;93192.91;;;13.49;100.00
10079;BME280;5078;42.544;22.966;2022-12-10T08:36:13;93156.91;;;13.33;100.00
10079;BME280;5078;42.544;22.966;2022-12-10T08:38:42;93185.53;;;13.51;100.00
10079;BME280;5078;42.544;22.966;2022-12-10T08:41:11;93190.84;;;13.51;100.00
10079;BME280;5078;42.544;22.966;2022-12-10T08:43:38;93186.34;;;13.51;100.00
10079;BME280;5078;42.544;22.966;2022-12-10T08:46:05;93187.38;;;13.44;100.00
10079;BME280;5078;42.544;22.966;2022-12-10T08:48:33;93170.19;;;13.26;100.00
10079;BME280;5078;42.544;22.966;2022-12-10T08:51:00;93171.22;;;13.38;100.00
10079;BME280;5078;42.544;22.966;2022-12-10T08:53:27;93171.22;;;13.32;100.00
10079;BME280;5078;42.544;22.966;2022-12-10T08:55:55;93165.72;;;13.33;100.00
10079;BME280;5078;42.544;22.966;2022-12-10T08:58:22;93144.41;;;13.20;100.00
10079;BME280;5078;42.544;22.966;2022-12-10T09:00:49;93148.88;;;13.40;100.00
10079;BME280;5078;42.544;22.966;2022-12-10T09:03:16;93156.50;;;13.36;100.00
10079;BME280;5078;42.544;22.966;2022-12-10T09:05:43;93144.97;;;13.42;100.00
10079;BME280;5078;42.544;22.966;2022-12-10T09:08:10;93140.66;;;13.48;100.00
10079;BME280;5078;42.544;22.966;2022-12-10T09:10:37;93140.78;;;13.66;100.00
10079;BME280;5078;42.544;22.966;2022-12-10T09:13:06;93132.25;;;13.89;100.00
10079;BME280;5078;42.544;22.966;2022-12-10T09:15:33;93116.56;;;14.13;100.00
10079;BME280;5078;42.544;22.966;2022-12-10T09:18:00;93112.81;;;14.20;100.00
10079;BME280;5078;42.544;22.966;2022-12-10T09:20:29;93108.16;;;14.34;100.00
10079;BME280;5078;42.544;22.966;2022-12-10T09:22:55;93102.34;;;14.44;100.00
10079;BME280;5078;42.544;22.966;2022-12-10T09:25:22;93097.84;;;14.44;100.00
10079;BME280;5078;42.544;22.966;2022-12-10T09:27:49;93084.44;;;14.58;100.00
10079;BME280;5078;42.544;22.966;2022-12-10T09:30:17;93091.53;;;14.64;100.00
10079;BME280;5078;42.544;22.966;2022-12-10T09:32:44;93090.22;;;14.73;100.00
10079;BME280;5078;42.544;22.966;2022-12-10T09:35:11;93079.34;;;14.93;100.00
10079;BME280;5078;42.544;22.966;2022-12-10T09:37:38;93088.78;;;14.96;100.00
10079;BME280;5078;42.544;22.966;2022-12-10T09:40:05;93083.13;;;14.85;100.00
10079;BME280;5078;42.544;22.966;2022-12-10T09:42:39;93098.94;;;15.05;100.00
10079;BME280;5078;42.544;22.966;2022-12-10T09:45:17;93097.44;;;14.91;100.00
10079;BME280;5078;42.544;22.966;2022-12-10T09:47:53;93086.25;;;15.01;100.00
10079;BME280;5078;42.544;22.966;2022-12-10T09:50:26;93087.91;;;15.20;100.00
10079;BME280;5078;42.544;22.966;2022-12-10T09:52:57;93091.00;;;15.17;100.00
10079;BME280;5078;42.544;22.966;2022-12-10T09:55:33;93090.69;;;14.88;100.00
10079;BME280;5078;42.544;22.966;2022-12-10T09:58:02;93085.06;;;14.97;100.00
10079;BME280;5078;42.544;22.966;2022-12-10T10:00:35;93091.00;;;14.80;100.00
10079;BME280;5078;42.544;22.966;2022-12-10T10:03:03;93087.56;;;14.92;100.00
10079;BME280;5078;42.544;22.966;2022-12-10T10:05:34;93088.69;;;15.02;100.00
10079;BME280;5078;42.544;22.966;2022-12-10T10:08:03;93078.38;;;14.87;100.00
10079;BME280;5078;42.544;22.966;2022-12-10T10:10:32;93068.44;;;14.76;100.00
10079;BME280;5078;42.544;22.966;2022-12-10T10:13:01;93047.91;;;14.52;100.00
10079;BME280;5078;42.544;22.966;2022-12-10T10:15:41;93040.53;;;14.54;100.00
10079;BME280;5078;42.544;22.966;2022-12-10T10:18:13;93044.13;;;14.66;100.00
10079;BME280;5078;42.544;22.966;2022-12-10T10:20:41;93047.91;;;14.58;100.00
10079;BME280;5078;42.544;22.966;2022-12-10T10:23:12;93045.75;;;14.67;100.00
10079;BME280;5078;42.544;22.966;2022-12-10T10:25:40;93027.72;;;14.62;100.00
10079;BME280;5078;42.544;22.966;2022-12-10T10:28:10;93030.28;;;14.76;100.00
10079;BME280;5078;42.544;22.966;2022-12-10T10:30:42;93025.59;;;14.71;100.00
10079;BME280;5078;42.544;22.966;2022-12-10T10:33:10;93018.56;;;14.58;100.00
10079;BME280;5078;42.544;22.966;2022-12-10T10:35:43;93029.09;;;14.46;100.00
10079;BME280;5078;42.544;22.966;2022-12-10T10:38:16;93029.53;;;14.43;100.00
10079;BME280;5078;42.544;22.966;2022-12-10T10:40:46;93031.09;;;14.33;100.00
10079;BME280;5078;42.544;22.966;2022-12-10T10:43:19;93028.00;;;14.29;100.00
10079;BME280;5078;42.544;22.966;2022-12-10T10:45:51;93022.38;;;14.19;100.00
10079;BME280;5078;42.544;22.966;2022-12-10T10:48:20;93029.41;;;14.13;100.00
10079;BME280;5078;42.544;22.966;2022-12-10T10:50:49;93023.91;;;14.08;100.00
10079;BME280;5078;42.544;22.966;2022-12-10T10:53:28;93022.41;;;13.87;100.00
10079;BME280;5078;42.544;22.966;2022-12-10T10:55:59;93006.25;;;14.07;100.00
10079;BME280;5078;42.544;22.966;2022-12-10T10:58:26;92991.91;;;14.08;100.00
10079;BME280;5078;42.544;22.966;2022-12-10T11:00:57;92985.25;;;14.17;100.00
10079;BME280;5078;42.544;22.966;2022-12-10T11:03:25;92992.28;;;14.12;100.00
10079;BME280;5078;42.544;22.966;2022-12-10T11:05:53;92988.97;;;14.16;100.00
10079;BME280;5078;42.544;22.966;2022-12-10T11:08:20;92984.84;;;13.95;100.00
10079;BME280;5078;42.544;22.966;2022-12-10T11:10:52;92978.69;;;13.95;100.00
10079;BME280;5078;42.544;22.966;2022-12-10T11:13:24;92982.13;;;14.02;100.00
10079;BME280;5078;42.544;22.966;2022-12-10T11:15:59;92977.38;;;14.04;100.00
10079;BME280;5078;42.544;22.966;2022-12-10T11:18:30;92975.22;;;13.94;100.00
10079;BME280;5078;42.544;22.966;2022-12-10T11:21:00;92973.25;;;14.08;100.00
10079;BME280;5078;42.544;22.966;2022-12-10T11:23:28;92976.66;;;13.90;100.00
10079;BME280;5078;42.544;22.966;2022-12-10T11:26:01;92973.47;;;14.07;100.00
10079;BME280;5078;42.544;22.966;2022-12-10T11:28:37;92968.13;;;14.07;100.00
10079;BME280;5078;42.544;22.966;2022-12-10T11:31:23;92963.34;;;13.90;100.00
10079;BME280;5078;42.544;22.966;2022-12-10T11:33:58;92950.56;;;13.99;100.00
10079;BME280;5078;42.544;22.966;2022-12-10T11:36:35;92970.16;;;14.11;100.00
10079;BME280;5078;42.544;22.966;2022-12-10T11:39:16;92966.88;;;14.09;100.00
10079;BME280;5078;42.544;22.966;2022-12-10T11:41:49;92961.34;;;14.11;100.00
10079;BME280;5078;42.544;22.966;2022-12-10T11:44:26;92939.56;;;14.14;100.00
10079;BME280;5078;42.544;22.966;2022-12-10T11:47:44;92945.06;;;14.19;100.00
10079;BME280;5078;42.544;22.966;2022-12-10T11:50:22;92935.00;;;14.21;100.00
10079;BME280;5078;42.544;22.966;2022-12-10T11:53:12;92928.75;;;14.27;100.00
10079;BME280;5078;42.544;22.966;2022-12-10T11:55:48;92920.19;;;14.43;100.00
10079;BME280;5078;42.544;22.966;2022-12-10T11:58:35;92932.19;;;14.53;100.00
10079;BME280;5078;42.544;22.966;2022-12-10T12:01:11;92920.09;;;14.32;100.00
10079;BME280;5078;42.544;22.966;2022-12-10T12:03:55;92916.41;;;14.33;100.00
10079;BME280;5078;42.544;22.966;2022-12-10T12:06:40;92910.03;;;14.34;100.00
10079;BME280;5078;42.544;22.966;2022-12-10T12:09:16;92914.69;;;14.20;100.00
10079;BME280;5078;42.544;22.966;2022-12-10T12:11:58;92916.19;;;14.16;100.00
10079;BME280;5078;42.544;22.966;2022-12-10T12:14:32;92904.03;;;14.20;100.00
10079;BME280;5078;42.544;22.966;2022-12-10T12:17:06;92884.84;;;14.11;100.00
10079;BME280;5078;42.544;22.966;2022-12-10T12:19:37;92892.19;;;14.16;100.00
10079;BME280;5078;42.544;22.966;2022-12-10T12:22:13;92886.13;;;14.09;100.00
10079;BME280;5078;42.544;22.966;2022-12-10T12:24:42;92875.00;;;14.12;100.00
10079;BME280;5078;42.544;22.966;2022-12-10T12:27:19;92867.91;;;14.06;100.00
10079;BME280;5078;42.544;22.966;2022-12-10T12:29:55;92852.34;;;14.02;100.00
10079;BME280;5078;42.544;22.966;2022-12-10T12:32:27;92841.91;;;14.01;100.00
10079;BME280;5078;42.544;22.966;2022-12-10T12:35:02;92834.72;;;14.01;100.00
10079;BME280;5078;42.544;22.966;2022-12-10T12:37:36;92848.72;;;13.97;100.00
10079;BME280;5078;42.544;22.966;2022-12-10T12:40:11;92838.81;;;13.86;100.00
10079;BME280;5078;42.544;22.966;2022-12-10T12:42:44;92841.66;;;13.84;100.00
10079;BME280;5078;42.544;22.966;2022-12-10T12:45:16;92844.50;;;13.89;100.00
10079;BME280;5078;42.544;22.966;2022-12-10T12:47:48;92835.38;;;13.97;100.00
10079;BME280;5078;42.544;22.966;2022-12-10T12:50:26;92843.81;;;13.94;100.00
10079;BME280;5078;42.544;22.966;2022-12-10T12:52:57;92840.88;;;14.02;100.00
10079;BME280;5078;42.544;22.966;2022-12-10T12:55:30;92837.31;;;14.08;100.00
10079;BME280;5078;42.544;22.966;2022-12-10T12:58:13;92850.81;;;14.13;100.00
10079;BME280;5078;42.544;22.966;2022-12-10T13:00:45;92846.84;;;13.97;100.00
10079;BME280;5078;42.544;22.966;2022-12-10T13:03:27;92841.59;;;14.09;100.00
10079;BME280;5078;42.544;22.966;2022-12-10T13:06:11;92848.13;;;14.13;100.00
10079;BME280;5078;42.544;22.966;2022-12-10T13:08:43;92843.78;;;14.00;100.00